createdAt,value
2023-02-14T02:00:50.130Z,125.67
2023-02-14T02:02:33.973Z,103.33
2023-02-14T02:03:41.746Z,100.33
2023-02-14T02:04:47.098Z,129.00
2023-02-14T02:05:53.965Z,132.83
2023-02-14T02:07:00.666Z,129.00
2023-02-14T02:08:03.169Z,123.33
2023-02-14T02:09:28.910Z,119.33
2023-02-14T02:10:31.297Z,100.33
2023-02-14T02:11:34.496Z,79.50
2023-02-14T02:12:38.259Z,74.17
2023-02-14T02:13:40.667Z,77.00
2023-02-14T02:14:43.672Z,83.00
2023-02-14T02:15:54.425Z,86.50
2023-02-14T02:17:06.448Z,95.33
2023-02-14T02:18:19.049Z,104.33
2023-02-14T02:19:33.490Z,105.50
2023-02-14T02:20:41.896Z,84.33
2023-02-14T02:22:21.809Z,64.33
2023-02-14T02:23:42.210Z,51.17
2023-02-14T02:24:50.241Z,46.83
2023-02-14T02:26:30.064Z,45.50
2023-02-14T02:27:53.632Z,37.83
2023-02-14T02:29:19.951Z,35.50
2023-02-14T02:30:43.870Z,41.33
2023-02-14T02:32:08.262Z,43.17
2023-02-14T02:33:13.281Z,44.17
2023-02-14T02:34:53.177Z,38.50
2023-02-14T02:36:09.085Z,41.33
2023-02-14T02:37:38.593Z,40.17
2023-02-14T02:39:08.314Z,37.67
2023-02-14T02:40:29.073Z,39.50
2023-02-14T02:41:46.813Z,41.50
2023-02-14T02:43:02.789Z,54.83
2023-02-14T02:44:16.919Z,76.33
2023-02-14T02:45:29.448Z,78.17
2023-02-14T02:46:49.101Z,91.50
2023-02-14T02:48:11.163Z,95.33
2023-02-14T02:50:08.795Z,98.50
2023-02-14T02:51:36.938Z,99.00
2023-02-14T02:53:07.328Z,117.00
2023-02-14T02:54:26.302Z,119.00
2023-02-14T02:55:53.194Z,122.67
2023-02-14T02:57:00.125Z,117.67
2023-02-14T02:58:03.366Z,113.17
2023-02-14T02:59:20.964Z,111.83
2023-02-14T03:00:25.170Z,63.00
2023-02-14T03:01:31.672Z,45.33
2023-02-14T03:03:00.189Z,38.50
2023-02-14T03:04:25.643Z,32.83
2023-02-14T03:05:29.433Z,29.83
2023-02-14T03:06:32.981Z,31.33
2023-02-14T03:07:37.536Z,31.17
2023-02-14T03:08:39.854Z,28.83
2023-02-14T03:09:42.258Z,25.83
2023-02-14T03:10:45.099Z,25.83
2023-02-14T03:12:25.850Z,28.33
2023-02-14T03:13:37.641Z,28.67
2023-02-14T03:14:55.646Z,29.50
2023-02-14T03:16:27.317Z,33.67
2023-02-14T03:17:36.920Z,53.17
2023-02-14T03:19:24.048Z,50.83
2023-02-14T03:20:41.817Z,49.00
2023-02-14T03:22:05.788Z,49.00
2023-02-14T03:23:30.030Z,47.83
2023-02-14T03:25:03.794Z,47.33
2023-02-14T03:26:19.046Z,49.83
2023-02-14T03:27:33.002Z,55.50
2023-02-14T03:29:05.324Z,60.00
2023-02-14T03:30:33.590Z,59.00
2023-02-14T03:31:56.102Z,57.67
2023-02-14T03:33:14.178Z,56.83
2023-02-14T03:34:35.546Z,55.00
2023-02-14T03:36:02.055Z,48.33
2023-02-14T03:37:20.236Z,48.00
2023-02-14T03:38:31.697Z,48.83
2023-02-14T03:39:45.873Z,50.50
2023-02-14T03:40:54.768Z,51.00
2023-02-14T03:42:06.353Z,50.50
2023-02-14T03:43:13.334Z,50.17
2023-02-14T03:44:21.520Z,50.00
2023-02-14T03:45:32.929Z,50.67
2023-02-14T03:46:44.666Z,51.00
2023-02-14T03:47:48.861Z,48.50
2023-02-14T03:48:54.172Z,43.83
2023-02-14T03:50:04.437Z,41.33
2023-02-14T03:51:09.685Z,40.67
2023-02-14T03:52:14.185Z,41.67
2023-02-14T03:53:21.846Z,46.17
2023-02-14T03:54:25.926Z,53.83
2023-02-14T03:55:54.536Z,58.83
2023-02-14T03:57:21.983Z,52.67
2023-02-14T03:58:32.860Z,34.67
2023-02-14T03:59:35.608Z,28.17
2023-02-14T04:00:41.273Z,24.83
2023-02-14T04:01:49.838Z,23.33
2023-02-14T04:02:56.384Z,23.83
2023-02-14T04:04:00.772Z,24.33
2023-02-14T04:05:15.567Z,26.00
2023-02-14T04:06:20.152Z,32.50
2023-02-14T04:07:23.897Z,59.00
2023-02-14T04:08:28.842Z,54.33
2023-02-14T04:09:31.207Z,52.17
2023-02-14T04:10:34.077Z,51.33
2023-02-14T04:11:38.614Z,50.50
2023-02-14T04:12:40.998Z,50.83
2023-02-14T04:13:43.360Z,57.17
2023-02-14T04:14:45.753Z,64.67
2023-02-14T04:15:48.172Z,76.67
2023-02-14T04:17:09.580Z,81.33
2023-02-14T04:18:30.353Z,80.50
2023-02-14T04:19:32.728Z,75.83
2023-02-14T04:20:35.453Z,72.67
2023-02-14T04:21:37.844Z,71.00
2023-02-14T04:22:40.203Z,67.50
2023-02-14T04:23:42.649Z,65.33
2023-02-14T04:24:45.081Z,62.67
2023-02-14T04:25:47.507Z,59.67
2023-02-14T04:27:10.168Z,51.50
2023-02-14T04:28:13.613Z,37.17
2023-02-14T04:29:16.019Z,28.83
2023-02-14T04:30:20.885Z,27.67
2023-02-14T04:31:23.399Z,28.00
2023-02-14T04:32:25.834Z,28.50
2023-02-14T04:33:28.298Z,30.33
2023-02-14T04:34:30.671Z,31.00
2023-02-14T04:35:33.053Z,32.50
2023-02-14T04:36:35.374Z,33.00
2023-02-14T04:37:37.912Z,33.00
2023-02-14T04:38:40.502Z,33.83
2023-02-14T04:39:42.856Z,34.83
2023-02-14T04:40:45.250Z,36.33
2023-02-14T04:41:47.583Z,48.67
2023-02-14T04:42:49.982Z,103.67
2023-02-14T04:43:52.314Z,131.67
2023-02-14T04:44:54.674Z,128.83
2023-02-14T04:45:57.133Z,88.33
2023-02-14T04:46:59.705Z,75.83
2023-02-14T04:48:02.034Z,58.33
2023-02-14T04:49:04.498Z,49.00
2023-02-14T04:50:07.620Z,45.17
2023-02-14T04:51:10.133Z,43.67
2023-02-14T04:52:13.288Z,41.00
2023-02-14T04:53:15.624Z,38.00
2023-02-14T04:54:18.009Z,38.17
2023-02-14T04:55:20.362Z,38.67
2023-02-14T04:56:22.757Z,39.67
2023-02-14T04:57:25.148Z,41.00
2023-02-14T04:58:27.573Z,42.00
2023-02-14T04:59:30.126Z,41.67
2023-02-14T05:00:32.512Z,41.17
2023-02-14T05:01:34.908Z,41.00
2023-02-14T05:02:37.396Z,41.50
2023-02-14T05:03:39.741Z,42.00
2023-02-14T05:04:42.175Z,42.67
2023-02-14T05:05:44.526Z,43.17
2023-02-14T05:06:47.073Z,44.00
2023-02-14T05:07:49.455Z,45.00
2023-02-14T05:08:51.795Z,44.17
2023-02-14T05:09:54.171Z,44.00
2023-02-14T05:10:56.687Z,44.00
2023-02-14T05:11:59.206Z,43.50
2023-02-14T05:13:02.024Z,42.83
2023-02-14T05:14:04.492Z,41.83
2023-02-14T05:15:07.103Z,41.00
2023-02-14T05:16:09.553Z,41.17
2023-02-14T05:17:11.985Z,42.00
2023-02-14T05:18:14.467Z,42.17
2023-02-14T05:19:16.840Z,43.67
2023-02-14T05:20:19.277Z,49.33
2023-02-14T05:21:24.071Z,60.00
2023-02-14T05:22:26.400Z,67.83
2023-02-14T05:23:28.763Z,69.33
2023-02-14T05:24:31.296Z,64.50
2023-02-14T05:25:33.640Z,58.00
2023-02-14T05:26:35.972Z,49.33
2023-02-14T05:27:38.377Z,46.50
2023-02-14T05:28:41.172Z,45.67
2023-02-14T05:29:43.577Z,44.17
2023-02-14T05:30:46.524Z,44.17
2023-02-14T05:31:49.033Z,43.00
2023-02-14T05:32:51.418Z,146.17
2023-02-14T05:33:53.799Z,148.83
2023-02-14T05:34:56.177Z,131.17
2023-02-14T05:36:00.298Z,92.17
2023-02-14T05:37:03.671Z,81.83
2023-02-14T05:38:06.100Z,59.17
2023-02-14T05:39:08.434Z,47.83
2023-02-14T05:40:13.518Z,45.33
2023-02-14T05:41:15.948Z,42.50
2023-02-14T05:42:18.344Z,41.00
2023-02-14T05:43:21.561Z,44.33
2023-02-14T05:44:23.986Z,46.17
2023-02-14T05:45:26.512Z,52.00
2023-02-14T05:46:28.931Z,65.50
2023-02-14T05:47:31.529Z,76.50
2023-02-14T05:48:34.209Z,72.17
2023-02-14T05:49:36.778Z,87.83
2023-02-14T05:50:39.324Z,88.17
2023-02-14T05:51:43.747Z,81.83
2023-02-14T05:52:46.086Z,79.33
2023-02-14T05:53:48.491Z,78.17
2023-02-14T05:54:51.125Z,76.67
2023-02-14T05:55:53.496Z,74.33
2023-02-14T05:56:56.488Z,72.17
2023-02-14T05:57:59.016Z,71.17
2023-02-14T05:59:01.409Z,69.67
2023-02-14T06:00:06.628Z,68.00
2023-02-14T06:01:09.129Z,67.00
2023-02-14T06:02:11.939Z,66.17
2023-02-14T06:03:14.296Z,66.00
2023-02-14T06:04:16.707Z,68.00
2023-02-14T06:05:20.271Z,69.00
2023-02-14T06:06:22.609Z,69.00
2023-02-14T06:07:25.224Z,68.83
2023-02-14T06:08:27.644Z,67.83
2023-02-14T06:09:30.066Z,66.50
2023-02-14T06:10:32.498Z,63.33
2023-02-14T06:11:34.954Z,60.00
2023-02-14T06:12:37.504Z,58.33
2023-02-14T06:13:41.595Z,57.33
2023-02-14T06:14:45.200Z,56.00
2023-02-14T06:15:47.630Z,56.17
2023-02-14T06:16:50.084Z,57.67
2023-02-14T06:17:54.508Z,60.83
2023-02-14T06:18:56.888Z,63.67
2023-02-14T06:19:59.235Z,64.00
2023-02-14T06:21:01.887Z,64.67
2023-02-14T06:22:04.922Z,65.33
2023-02-14T06:23:07.264Z,67.33
2023-02-14T06:24:09.718Z,68.67
2023-02-14T06:25:12.070Z,70.67
2023-02-14T06:26:14.445Z,72.33
2023-02-14T06:27:17.020Z,73.50
2023-02-14T06:28:19.370Z,74.67
2023-02-14T06:29:21.752Z,76.83
2023-02-14T06:30:24.711Z,78.33
2023-02-14T06:31:27.336Z,81.00
2023-02-14T06:32:29.740Z,89.33
2023-02-14T06:33:32.091Z,96.17
2023-02-14T06:34:34.590Z,97.50
2023-02-14T06:35:36.953Z,96.17
2023-02-14T06:36:39.276Z,94.50
2023-02-14T06:37:45.333Z,94.33
2023-02-14T06:38:48.688Z,92.50
2023-02-14T06:39:52.918Z,89.83
2023-02-14T06:40:55.488Z,79.33
2023-02-14T06:41:57.878Z,75.33
2023-02-14T06:43:00.426Z,102.50
2023-02-14T06:44:03.852Z,113.50
2023-02-14T06:45:10.101Z,125.33
2023-02-14T06:46:12.595Z,123.67
2023-02-14T06:47:15.217Z,128.50
2023-02-14T06:48:21.695Z,126.67
2023-02-14T06:49:24.666Z,122.00
2023-02-14T06:50:27.313Z,117.50
2023-02-14T06:51:34.306Z,115.67
2023-02-14T06:52:38.022Z,113.83
2023-02-14T06:53:44.926Z,111.67
2023-02-14T06:54:49.835Z,108.83
2023-02-14T06:55:52.308Z,106.67
2023-02-14T06:56:56.224Z,110.00
2023-02-14T06:58:01.755Z,119.83
2023-02-14T06:59:11.152Z,125.50
2023-02-14T07:00:16.752Z,134.50
2023-02-14T07:01:19.331Z,144.67
2023-02-14T07:02:24.697Z,146.00
2023-02-14T07:03:27.663Z,147.33
2023-02-14T07:04:31.362Z,149.83
2023-02-14T07:05:38.385Z,154.83
2023-02-14T07:06:40.892Z,168.50
2023-02-14T07:07:44.161Z,173.83
2023-02-14T07:08:48.591Z,171.50
2023-02-14T07:09:52.435Z,169.33
2023-02-14T07:10:58.737Z,166.50
2023-02-14T07:12:02.523Z,168.83
2023-02-14T07:13:05.598Z,173.33
2023-02-14T07:14:07.984Z,171.17
2023-02-14T07:15:12.411Z,169.17
2023-02-14T07:16:14.822Z,166.50
2023-02-14T07:17:17.420Z,165.17
2023-02-14T07:18:19.802Z,163.67
2023-02-14T07:19:22.204Z,162.83
2023-02-14T07:20:25.009Z,161.00
2023-02-14T07:21:27.407Z,158.50
2023-02-14T07:22:30.403Z,158.00
2023-02-14T07:23:33.148Z,159.33
2023-02-14T07:24:35.578Z,160.50
2023-02-14T07:25:38.410Z,167.83
2023-02-14T07:26:40.791Z,177.67
2023-02-14T07:27:43.741Z,182.33
2023-02-14T07:28:49.135Z,194.50
2023-02-14T07:29:51.735Z,201.00
2023-02-14T07:30:54.403Z,199.83
2023-02-14T07:31:57.074Z,196.50
2023-02-14T07:32:59.789Z,192.50
2023-02-14T07:34:02.255Z,189.50
2023-02-14T07:35:05.105Z,188.67
2023-02-14T07:36:08.826Z,187.17
2023-02-14T07:37:11.342Z,183.83
2023-02-14T07:38:13.780Z,180.50
2023-02-14T07:39:16.264Z,179.67
2023-02-14T07:40:20.133Z,180.33
2023-02-14T07:41:22.632Z,177.50
2023-02-14T07:42:25.056Z,173.17
2023-02-14T07:43:27.834Z,170.83
2023-02-14T07:44:30.356Z,167.83
2023-02-14T07:45:32.783Z,176.50
2023-02-14T07:46:35.349Z,195.50
2023-02-14T07:47:38.143Z,223.50
2023-02-14T07:48:40.657Z,232.50
2023-02-14T07:49:43.123Z,230.33
2023-02-14T07:50:45.636Z,222.00
2023-02-14T07:51:48.090Z,212.33
2023-02-14T07:52:50.663Z,213.17
2023-02-14T07:53:53.118Z,216.17
2023-02-14T07:54:57.425Z,223.17
2023-02-14T07:56:01.764Z,226.33
2023-02-14T07:57:07.218Z,217.17
2023-02-14T07:58:17.204Z,198.00
2023-02-14T07:59:25.955Z,169.83
2023-02-14T08:00:49.134Z,158.00
2023-02-14T08:01:51.885Z,155.17
2023-02-14T08:02:56.099Z,154.67
2023-02-14T08:03:59.416Z,144.50
2023-02-14T08:05:24.638Z,142.17
2023-02-14T08:07:23.117Z,134.33
2023-02-14T08:08:28.016Z,132.17
2023-02-14T08:09:30.571Z,133.83
2023-02-14T08:10:32.971Z,131.67
2023-02-14T08:12:04.891Z,132.33
2023-02-14T08:13:07.369Z,133.33
2023-02-14T08:14:09.767Z,132.33
2023-02-14T08:15:30.665Z,127.50
2023-02-14T08:16:34.765Z,123.83
2023-02-14T08:17:37.259Z,127.83
2023-02-14T08:18:41.597Z,129.50
2023-02-14T08:19:44.034Z,130.50
2023-02-14T08:20:49.859Z,132.00
2023-02-14T08:21:52.525Z,131.33
2023-02-14T08:22:54.995Z,131.33
2023-02-14T08:23:57.908Z,129.83
2023-02-14T08:25:00.271Z,129.17
2023-02-14T08:26:04.858Z,129.00
2023-02-14T08:27:07.406Z,129.67
2023-02-14T08:28:10.351Z,130.00
2023-02-14T08:29:13.370Z,130.00
2023-02-14T08:30:16.926Z,131.17
2023-02-14T08:31:36.083Z,135.83
2023-02-14T08:32:38.922Z,151.33
2023-02-14T08:33:43.434Z,157.50
2023-02-14T08:34:45.935Z,159.67
2023-02-14T08:35:48.817Z,160.50
2023-02-14T08:36:52.159Z,160.33
2023-02-14T08:37:55.087Z,158.50
2023-02-14T08:38:57.937Z,160.00
2023-02-14T08:40:00.465Z,163.67
2023-02-14T08:41:44.743Z,166.67
2023-02-14T08:42:47.703Z,162.83
2023-02-14T08:43:50.526Z,149.33
2023-02-14T08:45:10.767Z,146.50
2023-02-14T08:46:15.146Z,149.67
2023-02-14T08:47:23.555Z,150.00
2023-02-14T08:48:37.374Z,149.50
2023-02-14T08:49:42.670Z,148.00
2023-02-14T08:50:52.221Z,146.50
2023-02-14T08:52:03.094Z,139.83
2023-02-14T08:53:13.802Z,131.33
2023-02-14T08:54:26.985Z,135.67
2023-02-14T08:56:27.007Z,144.00
2023-02-14T08:57:38.824Z,148.00
2023-02-14T08:59:01.033Z,149.00
2023-02-14T09:00:07.408Z,161.17
2023-02-14T09:01:11.996Z,167.67
2023-02-14T09:02:17.958Z,161.67
2023-02-14T09:03:35.178Z,149.17
2023-02-14T09:04:39.788Z,125.17
2023-02-14T09:05:43.132Z,109.17
2023-02-14T09:06:45.631Z,107.33
2023-02-14T09:07:47.978Z,112.00
2023-02-14T09:08:50.741Z,111.17
2023-02-14T09:09:53.114Z,107.83
2023-02-14T09:10:55.597Z,106.83
2023-02-14T09:11:58.120Z,102.83
2023-02-14T09:13:00.481Z,102.33
2023-02-14T09:14:03.065Z,103.33
2023-02-14T09:15:05.834Z,105.33
2023-02-14T09:16:10.768Z,107.83
2023-02-14T09:17:13.818Z,109.50
2023-02-14T09:18:16.476Z,107.50
2023-02-14T09:19:18.909Z,99.50
2023-02-14T09:20:21.429Z,98.83
2023-02-14T09:21:26.976Z,88.67
2023-02-14T09:22:29.464Z,91.00
2023-02-14T09:23:31.915Z,91.33
2023-02-14T09:24:36.640Z,91.33
2023-02-14T09:25:39.092Z,90.33
2023-02-14T09:26:42.386Z,90.17
2023-02-14T09:27:44.773Z,90.67
2023-02-14T09:28:47.920Z,89.33
2023-02-14T09:29:50.449Z,87.17
2023-02-14T09:30:54.465Z,87.50
2023-02-14T09:31:59.823Z,88.00
2023-02-14T09:33:05.397Z,86.33
2023-02-14T09:34:07.826Z,88.83
2023-02-14T09:35:29.138Z,89.50
2023-02-14T09:36:34.063Z,77.00
2023-02-14T09:37:41.560Z,75.50
2023-02-14T09:38:45.727Z,77.33
2023-02-14T09:40:03.154Z,74.00
2023-02-14T09:41:35.389Z,68.00
2023-02-14T09:43:06.747Z,58.67
2023-02-14T09:44:26.742Z,52.83
2023-02-14T09:45:31.477Z,50.83
2023-02-14T09:46:43.353Z,51.67
2023-02-14T09:47:55.912Z,55.17
2023-02-14T09:49:01.307Z,57.83
2023-02-14T09:50:18.730Z,59.33
2023-02-14T09:51:27.420Z,61.00
2023-02-14T09:52:32.700Z,62.50
2023-02-14T09:54:12.600Z,63.83
2023-02-14T09:55:18.246Z,66.00
2023-02-14T09:56:40.047Z,66.00
2023-02-14T09:58:08.397Z,66.00
2023-02-14T09:59:35.028Z,64.67
2023-02-14T10:00:46.834Z,59.50
2023-02-14T10:01:58.976Z,59.00
2023-02-14T10:03:25.808Z,59.00
2023-02-14T10:04:48.034Z,56.33
2023-02-14T10:06:28.137Z,56.00
2023-02-14T10:07:57.852Z,56.00
2023-02-14T10:09:32.662Z,56.33
2023-02-14T10:10:43.266Z,57.50
2023-02-14T10:11:47.723Z,58.67
2023-02-14T10:13:00.844Z,59.00
2023-02-14T10:14:17.758Z,60.00
2023-02-14T10:15:34.658Z,62.00
2023-02-14T10:16:44.364Z,64.50
2023-02-14T10:17:52.910Z,64.33
2023-02-14T10:19:04.479Z,63.67
2023-02-14T10:20:20.051Z,62.67
2023-02-14T10:21:30.223Z,61.00
2023-02-14T10:22:42.915Z,60.00
2023-02-14T10:23:54.545Z,60.00
2023-02-14T10:25:08.660Z,60.00
2023-02-14T10:26:16.347Z,60.00
2023-02-14T10:27:42.384Z,60.83
2023-02-14T10:28:49.912Z,61.00
2023-02-14T10:29:52.287Z,61.00
2023-02-14T10:31:06.286Z,60.17
2023-02-14T10:32:14.848Z,59.83
2023-02-14T10:33:19.734Z,58.83
2023-02-14T10:34:46.339Z,57.17
2023-02-14T10:35:53.252Z,56.17
2023-02-14T10:37:27.993Z,55.33
2023-02-14T10:38:44.255Z,56.67
2023-02-14T10:40:00.743Z,57.67
2023-02-14T10:41:33.071Z,58.00
2023-02-14T10:42:55.261Z,58.33
2023-02-14T10:46:18.536Z,58.00
2023-02-14T10:49:43.110Z,59.50
2023-02-14T10:51:03.703Z,59.50
2023-02-14T10:52:29.250Z,58.00
2023-02-14T10:53:50.188Z,60.50
2023-02-14T10:54:58.573Z,66.00
2023-02-14T10:56:08.570Z,68.67
2023-02-14T10:57:33.039Z,68.00
2023-02-14T10:58:38.853Z,67.67
2023-02-14T11:00:02.753Z,66.50
2023-02-14T11:01:13.179Z,66.00
2023-02-14T11:02:18.174Z,65.17
2023-02-14T11:03:20.577Z,65.50
2023-02-14T11:04:26.440Z,65.50
2023-02-14T11:05:31.749Z,65.50
2023-02-14T11:06:34.567Z,64.83
2023-02-14T11:07:37.331Z,64.00
2023-02-14T11:08:42.347Z,64.00
2023-02-14T11:09:45.248Z,65.00
2023-02-14T11:10:48.478Z,66.50
2023-02-14T11:11:56.319Z,67.67
2023-02-14T11:12:58.833Z,68.67
2023-02-14T11:15:27.816Z,66.83
2023-02-14T11:16:36.703Z,66.00
2023-02-14T11:17:39.757Z,66.50
2023-02-14T11:18:42.466Z,66.83
2023-02-14T11:20:03.083Z,66.00
2023-02-14T11:21:10.963Z,67.17
2023-02-14T11:22:30.226Z,67.33
2023-02-14T11:23:35.986Z,62.17
2023-02-14T11:24:44.070Z,60.00
2023-02-14T11:25:55.147Z,59.50
2023-02-14T11:27:15.390Z,59.00
2023-02-14T11:28:24.105Z,58.33
2023-02-14T11:29:42.819Z,57.33
2023-02-14T11:30:56.992Z,57.00
2023-02-14T11:32:15.099Z,57.67
2023-02-14T11:33:30.708Z,58.00
2023-02-14T11:35:02.739Z,58.83
2023-02-14T11:36:13.803Z,59.00
2023-02-14T11:37:59.676Z,59.00
2023-02-14T11:39:23.705Z,59.00
2023-02-14T11:40:51.651Z,56.50
2023-02-14T11:41:59.967Z,54.33
2023-02-14T11:43:19.882Z,54.00
2023-02-14T11:44:30.645Z,55.17
2023-02-14T11:45:39.116Z,56.00
2023-02-14T11:46:52.810Z,56.00
2023-02-14T11:48:38.420Z,56.00
2023-02-14T11:54:07.610Z,57.00
2023-02-14T11:55:34.837Z,56.50
2023-02-14T11:57:14.050Z,54.33
2023-02-14T11:58:32.410Z,54.00
2023-02-14T11:59:51.638Z,53.00
2023-02-14T12:00:54.985Z,52.00
2023-02-14T12:02:02.900Z,50.67
2023-02-14T12:03:07.370Z,50.00
2023-02-14T12:04:18.954Z,49.33
2023-02-14T12:05:46.508Z,49.00
2023-02-14T12:06:49.601Z,50.67
2023-02-14T12:07:58.421Z,52.50
2023-02-14T12:09:25.790Z,53.00
2023-02-14T12:10:38.296Z,51.50
2023-02-14T12:11:41.414Z,50.00
2023-02-14T12:12:51.004Z,49.00
2023-02-14T12:13:56.151Z,48.17
2023-02-14T12:15:54.604Z,47.83
2023-02-14T12:17:11.979Z,45.00
2023-02-14T12:18:29.847Z,44.00
2023-02-14T12:19:54.445Z,42.67
2023-02-14T12:21:13.147Z,40.33
2023-02-14T12:22:20.957Z,37.50
2023-02-14T12:23:35.451Z,37.00
2023-02-14T12:25:00.366Z,37.00
2023-02-14T12:26:09.762Z,37.50
2023-02-14T12:27:12.287Z,38.17
2023-02-14T12:28:23.686Z,39.33
2023-02-14T12:29:42.152Z,42.17
2023-02-14T12:30:45.623Z,44.67
2023-02-14T12:31:58.928Z,45.17
2023-02-14T12:33:05.065Z,46.00
2023-02-14T12:34:11.312Z,46.83
2023-02-14T12:35:48.619Z,47.67
2023-02-14T12:37:29.518Z,47.00
2023-02-14T12:39:16.747Z,47.83
2023-02-14T12:40:21.543Z,47.00
2023-02-14T12:41:44.961Z,46.33
2023-02-14T12:44:07.371Z,46.00
2023-02-14T12:45:24.951Z,46.00
2023-02-14T12:46:40.652Z,46.67
2023-02-14T12:47:53.236Z,47.00
2023-02-14T12:49:28.913Z,46.00
2023-02-14T12:50:46.880Z,46.00
2023-02-14T12:52:00.228Z,45.83
2023-02-14T12:53:21.135Z,45.00
2023-02-14T12:54:44.308Z,45.00
2023-02-14T12:56:10.885Z,44.17
2023-02-14T12:57:43.863Z,43.50
2023-02-14T12:59:12.762Z,42.17
2023-02-14T13:01:29.204Z,40.50
2023-02-14T13:02:46.715Z,41.00
2023-02-14T13:04:13.741Z,41.00
2023-02-14T13:05:18.111Z,41.17
2023-02-14T13:07:10.735Z,42.00
2023-02-14T13:08:49.697Z,42.00
2023-02-14T13:10:32.752Z,42.33
2023-02-14T13:11:50.612Z,43.00
2023-02-14T13:13:04.505Z,44.00
2023-02-14T13:14:31.040Z,44.00
2023-02-14T13:15:53.157Z,45.67
2023-02-14T13:17:18.148Z,49.50
2023-02-14T13:18:48.881Z,57.67
2023-02-14T13:20:03.303Z,55.50
2023-02-14T13:21:13.159Z,55.00
2023-02-14T13:22:19.223Z,54.17
2023-02-14T13:23:35.662Z,53.33
2023-02-14T13:27:23.174Z,48.00
2023-02-14T13:29:50.630Z,48.00
2023-02-14T13:30:55.155Z,48.00
2023-02-14T13:32:01.974Z,47.17
2023-02-14T13:33:10.400Z,47.00
2023-02-14T13:34:28.240Z,47.00
2023-02-14T13:35:32.375Z,47.00
2023-02-14T13:36:36.515Z,47.00
2023-02-14T13:37:39.329Z,46.83
2023-02-14T13:38:48.689Z,47.17
2023-02-14T13:40:01.901Z,49.33
2023-02-14T13:41:05.575Z,52.00
2023-02-14T13:42:08.002Z,52.83
2023-02-14T13:43:10.411Z,53.00
2023-02-14T13:44:38.680Z,53.00
2023-02-14T13:45:41.101Z,51.83
2023-02-14T13:46:48.322Z,50.33
2023-02-14T13:48:03.641Z,49.00
2023-02-14T13:49:24.339Z,48.17
2023-02-14T13:50:27.348Z,47.17
2023-02-14T13:51:53.034Z,47.00
2023-02-14T13:52:55.867Z,47.00
2023-02-14T13:53:59.766Z,47.00
2023-02-14T13:55:07.842Z,48.33
2023-02-14T13:56:12.838Z,54.67
2023-02-14T13:57:36.564Z,54.50
2023-02-14T13:58:55.113Z,54.00
2023-02-14T14:00:19.100Z,54.00
2023-02-14T14:01:30.656Z,53.33
2023-02-14T14:02:44.290Z,53.83
2023-02-14T14:03:57.828Z,55.83
2023-02-14T14:05:03.108Z,57.83
2023-02-14T14:06:10.911Z,60.50
2023-02-14T14:07:13.554Z,67.83
2023-02-14T14:08:25.235Z,65.83
2023-02-14T14:09:43.344Z,66.00
2023-02-14T14:10:48.509Z,73.17
2023-02-14T14:11:51.518Z,73.00
2023-02-14T14:12:53.935Z,71.67
2023-02-14T14:14:01.879Z,70.33
2023-02-14T14:15:07.300Z,70.00
2023-02-14T14:16:27.709Z,72.17
2023-02-14T14:17:35.346Z,73.50
2023-02-14T14:18:43.392Z,72.50
2023-02-14T14:19:47.108Z,69.83
2023-02-14T14:20:49.677Z,65.50
2023-02-14T14:22:09.468Z,63.17
2023-02-14T14:23:45.168Z,61.67
2023-02-14T14:24:59.561Z,54.17
2023-02-14T14:26:02.471Z,52.00
2023-02-14T14:27:20.976Z,52.00
2023-02-14T14:28:26.532Z,52.00
2023-02-14T14:29:31.797Z,51.00
2023-02-14T14:30:34.487Z,51.33
2023-02-14T14:31:41.035Z,52.00
2023-02-14T14:32:45.889Z,53.00
2023-02-14T14:33:57.865Z,53.17
2023-02-14T14:35:04.929Z,54.50
2023-02-14T14:36:13.515Z,55.17
2023-02-14T14:37:19.486Z,57.00
2023-02-14T14:38:53.928Z,61.83
2023-02-14T14:40:02.453Z,65.83
2023-02-14T14:41:04.949Z,66.00
2023-02-14T14:42:18.200Z,65.50
2023-02-14T14:43:33.797Z,65.00
2023-02-14T14:44:38.082Z,63.00
2023-02-14T14:45:43.805Z,59.17
2023-02-14T14:46:46.884Z,56.00
2023-02-14T14:47:54.112Z,56.50
2023-02-14T14:48:57.518Z,57.00
2023-02-14T14:50:07.518Z,57.83
2023-02-14T14:51:21.958Z,57.67
2023-02-14T14:52:37.565Z,56.83
2023-02-14T14:53:47.185Z,56.00
2023-02-14T14:54:49.555Z,56.00
2023-02-14T14:55:52.290Z,56.00
2023-02-14T14:57:01.770Z,55.17
2023-02-14T14:58:09.318Z,55.00
2023-02-14T14:59:29.039Z,55.00
2023-02-14T15:00:34.584Z,55.67
2023-02-14T15:01:39.008Z,55.50
2023-02-14T15:02:41.351Z,55.00
2023-02-14T15:03:43.815Z,54.67
2023-02-14T15:04:46.193Z,54.00
2023-02-14T15:05:50.414Z,53.83
2023-02-14T15:06:52.875Z,53.00
2023-02-14T15:07:55.414Z,52.17
2023-02-14T15:08:57.834Z,52.00
2023-02-14T15:10:00.655Z,53.17
2023-02-14T15:11:11.081Z,56.67
2023-02-14T15:12:38.551Z,61.00
2023-02-14T15:13:53.535Z,61.17
2023-02-14T15:14:58.057Z,61.00
2023-02-14T15:16:03.480Z,60.83
2023-02-14T15:17:18.635Z,62.50
2023-02-14T15:18:21.707Z,61.67
2023-02-14T15:19:33.439Z,61.00
2023-02-14T15:20:36.994Z,61.17
2023-02-14T15:21:44.471Z,62.00
2023-02-14T15:22:49.897Z,61.50
2023-02-14T15:23:52.866Z,60.67
2023-02-14T15:24:55.756Z,61.33
2023-02-14T15:25:58.225Z,62.83
2023-02-14T15:27:02.109Z,62.00
2023-02-14T15:28:04.820Z,62.00
2023-02-14T15:29:07.597Z,62.83
2023-02-14T15:30:19.456Z,65.17
2023-02-14T15:31:22.255Z,71.50
2023-02-14T15:32:26.732Z,74.33
2023-02-14T15:33:31.563Z,78.33
2023-02-14T15:34:36.438Z,81.50
2023-02-14T15:35:42.399Z,84.00
2023-02-14T15:36:49.173Z,89.83
2023-02-14T15:37:52.399Z,91.83
2023-02-14T15:38:56.882Z,92.67
2023-02-14T15:39:59.925Z,90.67
2023-02-14T15:41:03.124Z,95.50
2023-02-14T15:42:06.375Z,99.67
2023-02-14T15:43:29.708Z,101.67
2023-02-14T15:44:32.636Z,102.83
2023-02-14T15:45:35.081Z,110.33
2023-02-14T15:46:39.551Z,107.00
2023-02-14T15:47:44.792Z,103.50
2023-02-14T15:48:48.020Z,101.83
2023-02-14T15:49:50.476Z,100.67
2023-02-14T15:50:56.597Z,100.00
2023-02-14T15:52:02.880Z,101.83
2023-02-14T15:53:17.424Z,118.33
2023-02-14T15:54:26.022Z,116.17
2023-02-14T15:55:28.945Z,112.67
2023-02-14T15:56:43.268Z,106.83
2023-02-14T15:57:55.379Z,86.83
2023-02-14T15:59:00.812Z,78.67
2023-02-14T16:00:11.663Z,75.83
2023-02-14T16:01:14.244Z,76.67
2023-02-14T16:02:17.327Z,79.50
2023-02-14T16:03:22.776Z,80.67
2023-02-14T16:04:31.372Z,82.17
2023-02-14T16:05:34.179Z,83.17
2023-02-14T16:06:44.781Z,86.67
2023-02-14T16:08:03.640Z,90.00
2023-02-14T16:09:26.198Z,94.67
2023-02-14T16:10:31.103Z,97.17
2023-02-14T16:11:38.151Z,99.50
2023-02-14T16:12:42.333Z,100.33
2023-02-14T16:13:46.579Z,112.00
2023-02-14T16:15:20.603Z,111.17
2023-02-14T16:16:23.100Z,109.67
2023-02-14T16:17:34.657Z,110.17
2023-02-14T16:18:45.971Z,113.67
2023-02-14T16:19:48.434Z,121.17
2023-02-14T16:20:51.432Z,131.17
2023-02-14T16:21:57.359Z,149.33
2023-02-14T16:23:22.227Z,166.50
2023-02-14T16:24:24.587Z,187.67
2023-02-14T16:25:26.962Z,202.67
2023-02-14T16:26:30.804Z,207.17
2023-02-14T16:27:33.648Z,191.50
2023-02-14T16:28:38.948Z,187.50
2023-02-14T16:29:41.632Z,176.17
2023-02-14T16:30:46.074Z,169.50
2023-02-14T16:32:16.510Z,162.33
2023-02-14T16:33:22.554Z,136.33
2023-02-14T16:34:26.563Z,127.00
2023-02-14T16:35:29.622Z,121.83
2023-02-14T16:36:33.688Z,125.83
2023-02-14T16:37:36.079Z,125.83
2023-02-14T16:38:44.196Z,125.33
2023-02-14T16:39:47.748Z,116.50
2023-02-14T16:40:52.439Z,113.67
2023-02-14T16:41:56.569Z,117.33
2023-02-14T16:42:59.909Z,111.00
2023-02-14T16:44:02.779Z,111.67
2023-02-14T16:45:05.360Z,115.17
2023-02-14T16:46:12.365Z,118.50
2023-02-14T16:47:17.325Z,124.33
2023-02-14T16:48:19.760Z,131.83
2023-02-14T16:49:23.729Z,134.33
2023-02-14T16:50:26.242Z,134.67
2023-02-14T16:51:33.677Z,133.00
2023-02-14T16:52:36.372Z,124.00
2023-02-14T16:53:38.794Z,118.83
2023-02-14T16:54:41.353Z,113.50
2023-02-14T16:55:43.761Z,115.83
2023-02-14T16:56:52.811Z,117.00
2023-02-14T16:57:55.278Z,117.67
2023-02-14T16:58:58.258Z,119.83
2023-02-14T17:00:00.682Z,134.67
2023-02-14T17:01:03.561Z,138.83
2023-02-14T17:02:06.416Z,135.67
2023-02-14T17:03:11.561Z,134.50